Flight Track Log - Related Links

Times and Time Zones

All times are in EDT time to prevent confusion due to time zone crossing. See the N903MC flight status page for this flight to view local times or setup timezone preferences in your user account.

Time Position Orientation Groundspeed Altitude Reporting Facility
EDT Latitude Longitude Course Direction KTS MPH feet Rate Location/Type
Sun 07:40:22 PM 32.7967 -97.3558 173° South 172 198 1,700  Level FAA TRACON SMA TRACON (SMA)
Sun 07:41:03 PM 32.7514 -97.3492 227° Southwest 238 274 3,100 2,325 Climbing FAA TRACON SMA TRACON (SMA)
Sun 07:41:42 PM 32.7231 -97.3850 244° Southwest 262 302 4,800 2,734 Climbing FAA TRACON SMA TRACON (SMA)
Sun 07:42:22 PM 32.7044 -97.4308 302° West 260 299 6,700 2,734 Climbing FAA TRACON SMA TRACON (SMA)
Sun 07:43:01 PM 32.7300 -97.4789 343° North 273 314 8,400 2,886 Climbing FAA TRACON SMA TRACON (SMA)
Sun 07:43:41 PM 32.7786 -97.4964 348° North 272 313 10,500 3,037 Climbing FAA TRACON SMA TRACON (SMA)
Sun 07:44:22 PM 32.8281 -97.5089 North 261 300 12,500 2,667 Climbing FAA TRACON SMA TRACON (SMA)
Sun 07:45:02 PM 32.8714 -97.5078 316° Northwest 264 304 14,100 2,250 Climbing FAA TRACON SMA TRACON (SMA)
Sun 07:45:42 PM 32.9028 -97.5433 283° West 257 296 15,500 2,250 Climbing FAA TRACON SMA TRACON (SMA)
Sun 07:46:22 PM 32.9186 -97.6281 274° West 274 315 17,100 2,400 Climbing FAA TRACON SMA TRACON (SMA)
Sun 07:47:02 PM 32.9219 -97.6922 272° West 283 326 18,700 1,443 Climbing FAA TRACON SMA TRACON (SMA)
Sun 07:47:41 PM 32.9236 -97.7542 271° West 308 354 19,000 225 Climbing FAA TRACON SMA TRACON (SMA)
Sun 07:48:22 PM 32.9247 -97.8328 271° West 350 403 19,000 370 Level FAA TRACON SMA TRACON (SMA)
Sun 07:49:02 PM 32.9261 -97.9053 271° West 356 410 19,500 741 Climbing FAA TRACON SMA TRACON (SMA)
Sun 07:49:43 PM 32.9275 -97.9864 272° West 353 406 20,000 667 Climbing FAA TRACON SMA TRACON (SMA)
Sun 07:50:23 PM 32.9294 -98.0681 269° West 358 412 20,400 1,179 Climbing FAA TRACON SMA TRACON (SMA)
Sun 07:51:35 PM 32.9269 -98.2031 271° West 354 407 22,200 1,318 Climbing Fort Worth Center
Sun 07:52:35 PM 32.9283 -98.2919 271° West 346 398 23,300 1,450 Climbing Fort Worth Center
Sun 07:53:35 PM 32.9294 -98.4183 274° West 346 398 25,100 1,600 Climbing Fort Worth Center
Sun 07:54:35 PM 32.9350 -98.5247 269° West 334 384 26,500 1,450 Climbing Fort Worth Center
Sun 07:55:35 PM 32.9339 -98.6361 271° West 334 384 28,000 1,500 Climbing Fort Worth Center
Sun 07:56:35 PM 32.9347 -98.7475 271° West 334 384 29,500 1,550 Climbing Fort Worth Center
Sun 07:57:35 PM 32.9356 -98.8589 272° West 334 384 31,100 1,550 Climbing Fort Worth Center
Sun 07:58:35 PM 32.9386 -98.9678 270° West 334 384 32,600 1,500 Climbing Fort Worth Center
Sun 07:59:35 PM 32.9392 -99.0744 271° West 328 377 34,100 1,500 Climbing Fort Worth Center
Sun 08:00:35 PM 32.9400 -99.1783 270° West 328 377 35,600 1,500 Climbing Fort Worth Center
Sun 08:01:35 PM 32.9406 -99.2822 269° West 328 377 37,100 1,200 Climbing Fort Worth Center
Sun 08:02:35 PM 32.9389 -99.3861 270° West 328 377 38,000 450 Climbing Fort Worth Center
Sun 08:03:35 PM 32.9392 -99.5000 271° West 333 383 38,000  Level Fort Worth Center
Sun 08:04:35 PM 32.9411 -99.6214 270° West 349 402 38,000  Level Fort Worth Center
Sun 08:05:35 PM 32.9411 -99.7453 272° West 371 427 38,000  Level Fort Worth Center
Sun 08:06:35 PM 32.9450 -99.8717 269° West 377 434 38,000  Level Fort Worth Center
Sun 08:07:35 PM 32.9422 -100.0003 270° West 383 441 38,000  Level Fort Worth Center
Sun 08:08:35 PM 32.9417 -100.1239 269° West 383 441 38,000  Level Fort Worth Center
Sun 08:09:35 PM 32.9392 -100.2475 269° West 383 441 38,000  Level Fort Worth Center
Sun 08:10:35 PM 32.9381 -100.3836 269° West 383 441 38,000  Level Fort Worth Center
Sun 08:11:35 PM 32.9369 -100.5075 271° West 383 441 38,000  Level Fort Worth Center
Sun 08:12:35 PM 32.9383 -100.6286 268° West 383 441 38,000  Level Fort Worth Center
Sun 08:13:35 PM 32.9356 -100.7253 269° West 383 441 38,000  Level Fort Worth Center
Sun 08:14:35 PM 32.9342 -100.8564 271° West 377 434 38,000  Level Fort Worth Center
Sun 08:15:35 PM 32.9350 -100.9775 269° West 371 427 38,000  Level Fort Worth Center
Sun 08:16:35 PM 32.9336 -101.0989 269° West 365 420 38,000  Level Fort Worth Center
Sun 08:17:35 PM 32.9322 -101.2175 269° West 365 420 38,000  Level Fort Worth Center
Sun 08:18:35 PM 32.9306 -101.3364 269° West 365 420 38,000  Level Fort Worth Center
Sun 08:19:35 PM 32.9289 -101.4550 270° West 365 420 38,000  Level Fort Worth Center
Sun 08:20:35 PM 32.9292 -101.5739 268° West 365 420 38,000  Level Fort Worth Center
Sun 08:21:35 PM 32.9253 -101.6875 269° West 358 412 38,000  Level Fort Worth Center
Sun 08:22:35 PM 32.9233 -101.8061 269° West 358 412 38,000  Level Fort Worth Center
Sun 08:23:35 PM 32.9211 -101.9247 270° West 364 419 38,000  Level Fort Worth Center
Sun 08:24:35 PM 32.9208 -102.0508 269° West 364 419 38,000  Level Fort Worth Center
Sun 08:25:35 PM 32.9183 -102.1719 269° West 364 419 38,000  Level Fort Worth Center
Sun 08:26:35 PM 32.9158 -102.2883 270° West 364 419 38,000 -700 Level Fort Worth Center
Sun 08:27:35 PM 32.9156 -102.4069 268° West 364 419 36,600 -1,650 Descending Fort Worth Center
Sun 08:28:35 PM 32.9128 -102.5231 268° West 364 419 34,700 -1,900 Descending Fort Worth Center
Sun 08:29:35 PM 32.9100 -102.6442 269° West 364 419 32,800 -1,950 Descending Fort Worth Center
Sun 08:30:35 PM 32.9086 -102.7728 267° West 375 432 30,800 -2,000 Descending Fort Worth Center
Sun 08:31:35 PM 32.9036 -102.8911 269° West 383 441 28,800 -2,000 Descending Fort Worth Center
Sun 08:32:35 PM 32.9019 -103.0197 268° West 375 432 26,800 -2,050 Descending Fort Worth Center
Sun 08:33:35 PM 32.8983 -103.1481 268° West 387 445 24,700 -2,050 Descending Fort Worth Center
Sun 08:34:35 PM 32.8947 -103.2714 267° West 387 445 22,700 -2,000 Descending Fort Worth Center
Sun 08:35:35 PM 32.8892 -103.3897 269° West 379 436 20,700 -1,400 Descending Fort Worth Center
Sun 08:36:35 PM 32.8875 -103.5083 267° West 367 422 19,900 -1,803 Descending Fort Worth Center
Sun 08:38:38 PM 32.8778 -103.7436 269° West 348 400 15,200 -2,173 Descending Albuquerque Center
Sun 08:39:40 PM 32.8753 -103.8567 268° West 325 374 13,200 -1,742 Descending Albuquerque Center
Sun 08:40:42 PM 32.8719 -103.9583 268° West 311 358 11,600 -1,548 Descending Albuquerque Center
Sun 08:41:44 PM 32.8686 -104.0594 267° West 308 354 10,000 -1,548 Descending Albuquerque Center
Sun 08:42:46 PM 32.8650 -104.1556 267° West 273 314 8,400 -1,500 Descending Albuquerque Center
Sun 08:43:48 PM 32.8617 -104.2453 271° West 271 312 6,900 -968 Descending Albuquerque Center
Sun 08:44:50 PM 32.8636 -104.3433 271° West 273 314 6,400 -484 Descending Albuquerque Center

Login

Don't have an account? Register now (free) for customized features, flight alerts, and more!